sensor_id;sensor_type;location;lat;lon;timestamp;P1;durP1;ratioP1;P2;durP2;ratioP2
18340;SDS011;9296;48.084;16.352;2023-07-02T00:00:50;3.25;;;2.90;;
18340;SDS011;9296;48.084;16.352;2023-07-02T00:05:52;2.60;;;2.40;;
18340;SDS011;9296;48.084;16.352;2023-07-02T00:11:25;3.00;;;2.70;;
18340;SDS011;9296;48.084;16.352;2023-07-02T00:13:53;4.68;;;2.55;;
18340;SDS011;9296;48.084;16.352;2023-07-02T00:16:21;3.35;;;2.85;;
18340;SDS011;9296;48.084;16.352;2023-07-02T00:18:48;3.00;;;2.42;;
18340;SDS011;9296;48.084;16.352;2023-07-02T00:27:08;4.57;;;2.60;;
18340;SDS011;9296;48.084;16.352;2023-07-02T00:29:35;3.17;;;2.53;;
18340;SDS011;9296;48.084;16.352;2023-07-02T00:32:03;3.72;;;2.55;;
18340;SDS011;9296;48.084;16.352;2023-07-02T00:34:30;3.28;;;2.70;;
18340;SDS011;9296;48.084;16.352;2023-07-02T00:40:28;4.25;;;2.85;;
18340;SDS011;9296;48.084;16.352;2023-07-02T00:42:57;3.58;;;2.70;;
18340;SDS011;9296;48.084;16.352;2023-07-02T00:45:24;3.60;;;2.60;;
18340;SDS011;9296;48.084;16.352;2023-07-02T00:47:53;3.50;;;2.35;;
18340;SDS011;9296;48.084;16.352;2023-07-02T00:50:23;6.40;;;2.75;;
18340;SDS011;9296;48.084;16.352;2023-07-02T00:55:55;3.42;;;2.60;;
18340;SDS011;9296;48.084;16.352;2023-07-02T00:58:24;3.67;;;2.60;;
18340;SDS011;9296;48.084;16.352;2023-07-02T01:00:51;2.95;;;2.67;;
18340;SDS011;9296;48.084;16.352;2023-07-02T01:03:21;3.50;;;2.40;;
18340;SDS011;9296;48.084;16.352;2023-07-02T01:05:48;3.10;;;2.50;;
18340;SDS011;9296;48.084;16.352;2023-07-02T01:11:21;2.92;;;2.30;;
18340;SDS011;9296;48.084;16.352;2023-07-02T01:13:51;3.30;;;2.53;;
18340;SDS011;9296;48.084;16.352;2023-07-02T01:16:19;2.95;;;2.33;;
18340;SDS011;9296;48.084;16.352;2023-07-02T01:18:47;4.22;;;2.65;;
18340;SDS011;9296;48.084;16.352;2023-07-02T01:21:17;3.75;;;2.60;;
18340;SDS011;9296;48.084;16.352;2023-07-02T01:26:48;2.42;;;2.20;;
18340;SDS011;9296;48.084;16.352;2023-07-02T01:29:16;3.53;;;2.78;;
18340;SDS011;9296;48.084;16.352;2023-07-02T01:31:43;2.90;;;2.55;;
18340;SDS011;9296;48.084;16.352;2023-07-02T01:34:11;3.47;;;2.50;;
18340;SDS011;9296;48.084;16.352;2023-07-02T01:36:40;3.20;;;2.30;;
18340;SDS011;9296;48.084;16.352;2023-07-02T01:42:12;3.45;;;2.42;;
18340;SDS011;9296;48.084;16.352;2023-07-02T01:44:41;3.42;;;2.63;;
18340;SDS011;9296;48.084;16.352;2023-07-02T01:47:08;2.65;;;2.40;;
18340;SDS011;9296;48.084;16.352;2023-07-02T01:49:38;2.97;;;2.35;;
18340;SDS011;9296;48.084;16.352;2023-07-02T01:52:09;2.55;;;2.35;;
18340;SDS011;9296;48.084;16.352;2023-07-02T01:54:36;3.17;;;2.47;;
18340;SDS011;9296;48.084;16.352;2023-07-02T01:57:03;4.20;;;2.92;;
18340;SDS011;9296;48.084;16.352;2023-07-02T01:59:31;3.42;;;2.92;;
18340;SDS011;9296;48.084;16.352;2023-07-02T02:01:58;6.13;;;2.72;;
18340;SDS011;9296;48.084;16.352;2023-07-02T02:04:25;3.15;;;2.70;;
18340;SDS011;9296;48.084;16.352;2023-07-02T02:06:53;5.65;;;3.83;;
18340;SDS011;9296;48.084;16.352;2023-07-02T02:12:25;3.45;;;2.53;;
18340;SDS011;9296;48.084;16.352;2023-07-02T02:14:53;4.18;;;2.78;;
18340;SDS011;9296;48.084;16.352;2023-07-02T02:17:20;3.78;;;3.10;;
18340;SDS011;9296;48.084;16.352;2023-07-02T02:19:48;2.97;;;2.70;;
18340;SDS011;9296;48.084;16.352;2023-07-02T02:22:16;4.28;;;3.10;;
18340;SDS011;9296;48.084;16.352;2023-07-02T02:24:43;5.35;;;3.25;;
18340;SDS011;9296;48.084;16.352;2023-07-02T02:27:10;3.35;;;2.95;;
18340;SDS011;9296;48.084;16.352;2023-07-02T02:29:41;3.50;;;2.78;;
18340;SDS011;9296;48.084;16.352;2023-07-02T02:32:08;8.65;;;5.32;;
18340;SDS011;9296;48.084;16.352;2023-07-02T02:34:35;3.58;;;3.00;;
18340;SDS011;9296;48.084;16.352;2023-07-02T02:42:42;3.53;;;2.95;;
18340;SDS011;9296;48.084;16.352;2023-07-02T02:47:56;3.92;;;2.88;;
18340;SDS011;9296;48.084;16.352;2023-07-02T02:50:23;4.00;;;2.90;;
18340;SDS011;9296;48.084;16.352;2023-07-02T02:52:52;3.88;;;2.92;;
18340;SDS011;9296;48.084;16.352;2023-07-02T02:55:20;4.30;;;3.00;;
18340;SDS011;9296;48.084;16.352;2023-07-02T02:57:47;7.22;;;3.75;;
18340;SDS011;9296;48.084;16.352;2023-07-02T03:02:50;3.67;;;2.80;;
18340;SDS011;9296;48.084;16.352;2023-07-02T03:30:06;4.07;;;3.00;;
18340;SDS011;9296;48.084;16.352;2023-07-02T03:32:35;5.38;;;3.47;;
18340;SDS011;9296;48.084;16.352;2023-07-02T03:56:22;5.10;;;2.92;;
18340;SDS011;9296;48.084;16.352;2023-07-02T03:58:49;4.60;;;3.00;;
18340;SDS011;9296;48.084;16.352;2023-07-02T04:01:18;4.65;;;3.00;;
18340;SDS011;9296;48.084;16.352;2023-07-02T04:03:47;4.20;;;2.85;;
18340;SDS011;9296;48.084;16.352;2023-07-02T04:06:15;4.53;;;3.00;;
18340;SDS011;9296;48.084;16.352;2023-07-02T04:11:47;4.55;;;3.17;;
18340;SDS011;9296;48.084;16.352;2023-07-02T04:14:17;5.25;;;3.20;;
18340;SDS011;9296;48.084;16.352;2023-07-02T04:16:44;5.25;;;3.17;;
18340;SDS011;9296;48.084;16.352;2023-07-02T04:19:11;4.35;;;3.20;;
18340;SDS011;9296;48.084;16.352;2023-07-02T04:21:39;5.13;;;3.20;;
18340;SDS011;9296;48.084;16.352;2023-07-02T04:27:16;4.55;;;3.40;;
18340;SDS011;9296;48.084;16.352;2023-07-02T04:29:43;4.65;;;3.20;;
18340;SDS011;9296;48.084;16.352;2023-07-02T04:32:10;3.58;;;2.55;;
18340;SDS011;9296;48.084;16.352;2023-07-02T04:34:37;4.60;;;3.20;;
18340;SDS011;9296;48.084;16.352;2023-07-02T04:37:05;2.97;;;2.47;;
18340;SDS011;9296;48.084;16.352;2023-07-02T04:42:41;3.10;;;2.80;;
18340;SDS011;9296;48.084;16.352;2023-07-02T04:45:12;4.60;;;2.83;;
18340;SDS011;9296;48.084;16.352;2023-07-02T04:47:40;3.95;;;2.83;;
18340;SDS011;9296;48.084;16.352;2023-07-02T04:50:07;3.60;;;2.47;;
18340;SDS011;9296;48.084;16.352;2023-07-02T04:55:58;3.60;;;2.70;;
18340;SDS011;9296;48.084;16.352;2023-07-02T04:58:27;3.10;;;2.80;;
18340;SDS011;9296;48.084;16.352;2023-07-02T05:00:55;6.75;;;2.67;;
18340;SDS011;9296;48.084;16.352;2023-07-02T05:03:30;3.20;;;2.60;;
18340;SDS011;9296;48.084;16.352;2023-07-02T05:05:57;4.35;;;3.10;;
18340;SDS011;9296;48.084;16.352;2023-07-02T05:08:25;3.53;;;2.67;;
18340;SDS011;9296;48.084;16.352;2023-07-02T05:10:57;3.92;;;2.47;;
18340;SDS011;9296;48.084;16.352;2023-07-02T05:13:28;2.63;;;2.40;;
18340;SDS011;9296;48.084;16.352;2023-07-02T05:16:16;3.05;;;2.40;;
18340;SDS011;9296;48.084;16.352;2023-07-02T05:18:52;2.85;;;2.50;;
18340;SDS011;9296;48.084;16.352;2023-07-02T05:24:11;2.38;;;2.15;;
18340;SDS011;9296;48.084;16.352;2023-07-02T05:34:55;3.05;;;2.17;;
18340;SDS011;9296;48.084;16.352;2023-07-02T05:37:23;3.70;;;2.08;;
18340;SDS011;9296;48.084;16.352;2023-07-02T05:43:06;2.95;;;2.25;;
18340;SDS011;9296;48.084;16.352;2023-07-02T05:45:33;2.53;;;2.05;;
18340;SDS011;9296;48.084;16.352;2023-07-02T05:48:04;2.53;;;2.08;;
18340;SDS011;9296;48.084;16.352;2023-07-02T05:50:32;2.28;;;2.08;;
18340;SDS011;9296;48.084;16.352;2023-07-02T05:56:03;2.25;;;2.05;;
18340;SDS011;9296;48.084;16.352;2023-07-02T05:58:30;2.97;;;2.00;;
18340;SDS011;9296;48.084;16.352;2023-07-02T06:00:57;2.28;;;2.03;;
18340;SDS011;9296;48.084;16.352;2023-07-02T06:03:26;2.22;;;2.03;;
18340;SDS011;9296;48.084;16.352;2023-07-02T06:05:54;2.40;;;2.20;;
18340;SDS011;9296;48.084;16.352;2023-07-02T06:14:29;3.50;;;2.38;;
18340;SDS011;9296;48.084;16.352;2023-07-02T06:16:56;2.65;;;2.03;;
18340;SDS011;9296;48.084;16.352;2023-07-02T06:19:24;3.00;;;2.20;;
18340;SDS011;9296;48.084;16.352;2023-07-02T06:21:52;2.72;;;2.30;;
18340;SDS011;9296;48.084;16.352;2023-07-02T06:24:20;2.53;;;1.95;;
18340;SDS011;9296;48.084;16.352;2023-07-02T06:26:47;6.95;;;1.98;;
18340;SDS011;9296;48.084;16.352;2023-07-02T06:29:14;2.58;;;1.80;;
18340;SDS011;9296;48.084;16.352;2023-07-02T06:31:41;2.28;;;1.73;;
18340;SDS011;9296;48.084;16.352;2023-07-02T06:34:08;1.70;;;1.60;;
18340;SDS011;9296;48.084;16.352;2023-07-02T06:36:36;2.08;;;1.80;;
18340;SDS011;9296;48.084;16.352;2023-07-02T06:42:17;1.80;;;1.70;;
18340;SDS011;9296;48.084;16.352;2023-07-02T06:44:44;2.20;;;1.80;;
18340;SDS011;9296;48.084;16.352;2023-07-02T06:47:11;2.08;;;1.88;;
18340;SDS011;9296;48.084;16.352;2023-07-02T06:49:39;2.03;;;1.75;;
18340;SDS011;9296;48.084;16.352;2023-07-02T06:52:06;2.80;;;1.90;;
18340;SDS011;9296;48.084;16.352;2023-07-02T06:54:51;2.88;;;2.13;;
18340;SDS011;9296;48.084;16.352;2023-07-02T06:57:21;2.78;;;2.20;;
18340;SDS011;9296;48.084;16.352;2023-07-02T06:59:48;2.70;;;2.25;;
18340;SDS011;9296;48.084;16.352;2023-07-02T07:02:16;2.60;;;2.40;;
18340;SDS011;9296;48.084;16.352;2023-07-02T07:04:43;2.38;;;2.17;;
18340;SDS011;9296;48.084;16.352;2023-07-02T07:07:10;2.50;;;2.30;;
18340;SDS011;9296;48.084;16.352;2023-07-02T07:12:42;2.40;;;2.20;;
18340;SDS011;9296;48.084;16.352;2023-07-02T07:15:10;4.35;;;2.28;;
18340;SDS011;9296;48.084;16.352;2023-07-02T07:17:37;2.55;;;2.30;;
18340;SDS011;9296;48.084;16.352;2023-07-02T07:20:05;3.20;;;2.30;;
18340;SDS011;9296;48.084;16.352;2023-07-02T07:22:33;2.70;;;2.50;;
18340;SDS011;9296;48.084;16.352;2023-07-02T07:28:05;2.10;;;1.98;;
18340;SDS011;9296;48.084;16.352;2023-07-02T07:30:32;2.22;;;2.03;;
18340;SDS011;9296;48.084;16.352;2023-07-02T07:32:59;2.20;;;2.00;;
18340;SDS011;9296;48.084;16.352;2023-07-02T07:35:26;4.40;;;2.63;;
18340;SDS011;9296;48.084;16.352;2023-07-02T07:37:54;2.58;;;2.38;;
18340;SDS011;9296;48.084;16.352;2023-07-02T07:40:21;2.50;;;2.30;;
18340;SDS011;9296;48.084;16.352;2023-07-02T07:42:48;2.42;;;2.22;;
18340;SDS011;9296;48.084;16.352;2023-07-02T07:45:17;2.30;;;2.20;;
18340;SDS011;9296;48.084;16.352;2023-07-02T07:47:44;2.45;;;2.25;;
18340;SDS011;9296;48.084;16.352;2023-07-02T07:50:12;2.38;;;2.20;;
18340;SDS011;9296;48.084;16.352;2023-07-02T07:52:39;2.95;;;2.50;;
18340;SDS011;9296;48.084;16.352;2023-07-02T07:58:10;2.78;;;2.58;;
18340;SDS011;9296;48.084;16.352;2023-07-02T08:00:39;2.85;;;2.65;;
18340;SDS011;9296;48.084;16.352;2023-07-02T08:03:06;2.70;;;2.50;;
18340;SDS011;9296;48.084;16.352;2023-07-02T08:05:33;2.78;;;2.58;;
18340;SDS011;9296;48.084;16.352;2023-07-02T08:08:00;2.58;;;2.38;;
18340;SDS011;9296;48.084;16.352;2023-07-02T08:13:31;2.78;;;2.40;;
18340;SDS011;9296;48.084;16.352;2023-07-02T08:15:59;2.55;;;2.35;;
18340;SDS011;9296;48.084;16.352;2023-07-02T08:18:27;3.95;;;2.50;;
18340;SDS011;9296;48.084;16.352;2023-07-02T08:20:54;2.58;;;2.38;;
18340;SDS011;9296;48.084;16.352;2023-07-02T08:26:25;2.22;;;2.10;;
18340;SDS011;9296;48.084;16.352;2023-07-02T08:28:52;2.80;;;2.15;;
18340;SDS011;9296;48.084;16.352;2023-07-02T08:31:21;2.45;;;2.25;;
18340;SDS011;9296;48.084;16.352;2023-07-02T08:33:48;2.97;;;2.25;;
18340;SDS011;9296;48.084;16.352;2023-07-02T08:36:15;2.28;;;2.08;;
18340;SDS011;9296;48.084;16.352;2023-07-02T08:44:31;2.38;;;2.17;;
18340;SDS011;9296;48.084;16.352;2023-07-02T08:47:00;2.30;;;2.10;;
18340;SDS011;9296;48.084;16.352;2023-07-02T08:49:28;2.17;;;2.08;;
18340;SDS011;9296;48.084;16.352;2023-07-02T08:51:55;3.97;;;2.45;;
18340;SDS011;9296;48.084;16.352;2023-07-02T08:57:27;4.03;;;2.03;;
18340;SDS011;9296;48.084;16.352;2023-07-02T08:59:54;3.45;;;2.03;;
18340;SDS011;9296;48.084;16.352;2023-07-02T09:02:31;2.40;;;2.20;;
18340;SDS011;9296;48.084;16.352;2023-07-02T09:04:59;2.30;;;2.05;;
18340;SDS011;9296;48.084;16.352;2023-07-02T09:07:26;2.70;;;2.10;;
18340;SDS011;9296;48.084;16.352;2023-07-02T09:13:04;2.42;;;2.22;;
18340;SDS011;9296;48.084;16.352;2023-07-02T09:15:37;2.33;;;2.00;;
18340;SDS011;9296;48.084;16.352;2023-07-02T09:18:15;2.70;;;2.28;;
18340;SDS011;9296;48.084;16.352;2023-07-02T09:20:43;3.80;;;2.33;;
18340;SDS011;9296;48.084;16.352;2023-07-02T09:23:10;3.13;;;2.20;;
18340;SDS011;9296;48.084;16.352;2023-07-02T09:25:38;2.33;;;2.13;;
18340;SDS011;9296;48.084;16.352;2023-07-02T09:28:13;2.47;;;2.00;;
18340;SDS011;9296;48.084;16.352;2023-07-02T09:30:48;3.90;;;2.13;;
18340;SDS011;9296;48.084;16.352;2023-07-02T09:33:17;2.20;;;2.00;;
18340;SDS011;9296;48.084;16.352;2023-07-02T09:35:47;2.10;;;2.00;;
18340;SDS011;9296;48.084;16.352;2023-07-02T09:38:16;2.47;;;2.10;;
18340;SDS011;9296;48.084;16.352;2023-07-02T09:43:48;2.78;;;2.58;;
18340;SDS011;9296;48.084;16.352;2023-07-02T09:46:15;3.03;;;2.30;;
18340;SDS011;9296;48.084;16.352;2023-07-02T09:48:45;2.85;;;2.08;;
18340;SDS011;9296;48.084;16.352;2023-07-02T09:51:13;2.90;;;2.60;;
18340;SDS011;9296;48.084;16.352;2023-07-02T09:59:47;3.05;;;2.10;;
18340;SDS011;9296;48.084;16.352;2023-07-02T10:02:15;2.63;;;2.20;;
18340;SDS011;9296;48.084;16.352;2023-07-02T10:04:45;3.40;;;2.10;;
18340;SDS011;9296;48.084;16.352;2023-07-02T10:07:25;2.40;;;2.20;;
18340;SDS011;9296;48.084;16.352;2023-07-02T10:09:53;3.05;;;2.42;;
18340;SDS011;9296;48.084;16.352;2023-07-02T10:12:21;3.45;;;3.15;;
18340;SDS011;9296;48.084;16.352;2023-07-02T10:14:49;3.03;;;2.47;;
18340;SDS011;9296;48.084;16.352;2023-07-02T10:17:23;2.47;;;2.22;;
18340;SDS011;9296;48.084;16.352;2023-07-02T10:19:52;2.38;;;2.05;;
18340;SDS011;9296;48.084;16.352;2023-07-02T10:22:20;2.80;;;2.53;;
18340;SDS011;9296;48.084;16.352;2023-07-02T10:30:41;3.22;;;2.60;;
18340;SDS011;9296;48.084;16.352;2023-07-02T10:33:12;4.78;;;2.75;;
18340;SDS011;9296;48.084;16.352;2023-07-02T10:35:42;2.92;;;2.50;;
18340;SDS011;9296;48.084;16.352;2023-07-02T10:38:15;3.90;;;2.53;;
18340;SDS011;9296;48.084;16.352;2023-07-02T10:41:00;3.53;;;2.42;;
18340;SDS011;9296;48.084;16.352;2023-07-02T10:43:31;2.97;;;2.60;;
18340;SDS011;9296;48.084;16.352;2023-07-02T10:45:58;3.80;;;2.67;;
18340;SDS011;9296;48.084;16.352;2023-07-02T10:48:26;3.15;;;2.58;;
18340;SDS011;9296;48.084;16.352;2023-07-02T10:50:58;2.88;;;2.40;;
18340;SDS011;9296;48.084;16.352;2023-07-02T10:53:25;2.88;;;2.58;;
18340;SDS011;9296;48.084;16.352;2023-07-02T10:58:56;3.25;;;2.60;;
18340;SDS011;9296;48.084;16.352;2023-07-02T11:01:24;2.58;;;2.38;;
18340;SDS011;9296;48.084;16.352;2023-07-02T11:03:57;2.60;;;2.40;;
18340;SDS011;9296;48.084;16.352;2023-07-02T11:06:26;3.03;;;2.67;;
18340;SDS011;9296;48.084;16.352;2023-07-02T11:08:54;2.40;;;2.20;;
18340;SDS011;9296;48.084;16.352;2023-07-02T11:11:22;4.97;;;4.05;;
18340;SDS011;9296;48.084;16.352;2023-07-02T11:13:50;3.33;;;3.03;;
18340;SDS011;9296;48.084;16.352;2023-07-02T11:16:18;3.05;;;2.55;;
18340;SDS011;9296;48.084;16.352;2023-07-02T11:18:47;3.80;;;2.80;;
18340;SDS011;9296;48.084;16.352;2023-07-02T11:21:18;3.70;;;2.75;;
18340;SDS011;9296;48.084;16.352;2023-07-02T11:23:47;4.45;;;2.42;;
18340;SDS011;9296;48.084;16.352;2023-07-02T11:26:14;2.97;;;2.28;;
18340;SDS011;9296;48.084;16.352;2023-07-02T11:28:48;2.90;;;2.63;;
18340;SDS011;9296;48.084;16.352;2023-07-02T11:31:26;3.00;;;2.70;;
18340;SDS011;9296;48.084;16.352;2023-07-02T11:33:53;2.80;;;2.60;;
18340;SDS011;9296;48.084;16.352;2023-07-02T11:36:23;3.85;;;2.70;;
18340;SDS011;9296;48.084;16.352;2023-07-02T11:38:58;2.40;;;2.20;;
18340;SDS011;9296;48.084;16.352;2023-07-02T11:41:25;4.03;;;2.53;;
18340;SDS011;9296;48.084;16.352;2023-07-02T11:44:02;3.78;;;2.20;;
18340;SDS011;9296;48.084;16.352;2023-07-02T11:46:29;4.50;;;2.72;;
18340;SDS011;9296;48.084;16.352;2023-07-02T11:48:57;3.00;;;2.70;;
18340;SDS011;9296;48.084;16.352;2023-07-02T11:51:24;2.47;;;2.28;;
18340;SDS011;9296;48.084;16.352;2023-07-02T11:53:52;3.40;;;2.53;;
18340;SDS011;9296;48.084;16.352;2023-07-02T11:59:24;2.60;;;2.40;;
18340;SDS011;9296;48.084;16.352;2023-07-02T12:01:51;2.40;;;2.20;;
18340;SDS011;9296;48.084;16.352;2023-07-02T12:04:18;2.38;;;2.17;;
18340;SDS011;9296;48.084;16.352;2023-07-02T12:06:45;3.85;;;2.17;;
18340;SDS011;9296;48.084;16.352;2023-07-02T12:09:13;4.15;;;2.10;;
18340;SDS011;9296;48.084;16.352;2023-07-02T12:11:40;2.33;;;2.10;;
18340;SDS011;9296;48.084;16.352;2023-07-02T12:14:10;2.53;;;2.33;;
18340;SDS011;9296;48.084;16.352;2023-07-02T12:16:39;3.28;;;2.50;;
18340;SDS011;9296;48.084;16.352;2023-07-02T12:19:06;2.47;;;2.28;;
18340;SDS011;9296;48.084;16.352;2023-07-02T12:21:35;2.22;;;1.92;;
18340;SDS011;9296;48.084;16.352;2023-07-02T12:24:02;3.30;;;2.47;;
18340;SDS011;9296;48.084;16.352;2023-07-02T12:26:33;3.13;;;2.35;;
18340;SDS011;9296;48.084;16.352;2023-07-02T12:29:01;3.53;;;2.72;;
18340;SDS011;9296;48.084;16.352;2023-07-02T12:31:29;2.33;;;2.13;;
18340;SDS011;9296;48.084;16.352;2023-07-02T12:33:57;2.88;;;2.03;;
18340;SDS011;9296;48.084;16.352;2023-07-02T12:36:24;2.53;;;2.33;;
18340;SDS011;9296;48.084;16.352;2023-07-02T12:38:52;2.65;;;2.20;;
18340;SDS011;9296;48.084;16.352;2023-07-02T12:41:19;2.30;;;2.10;;
18340;SDS011;9296;48.084;16.352;2023-07-02T12:43:46;2.88;;;2.28;;
18340;SDS011;9296;48.084;16.352;2023-07-02T12:46:14;2.45;;;2.10;;
18340;SDS011;9296;48.084;16.352;2023-07-02T12:48:41;3.92;;;2.65;;
18340;SDS011;9296;48.084;16.352;2023-07-02T12:51:10;2.83;;;2.40;;
18340;SDS011;9296;48.084;16.352;2023-07-02T12:53:38;2.20;;;2.00;;
18340;SDS011;9296;48.084;16.352;2023-07-02T12:59:08;2.25;;;2.05;;
18340;SDS011;9296;48.084;16.352;2023-07-02T13:01:35;3.10;;;2.20;;
18340;SDS011;9296;48.084;16.352;2023-07-02T13:04:03;2.40;;;2.10;;
18340;SDS011;9296;48.084;16.352;2023-07-02T13:06:31;4.60;;;2.50;;
18340;SDS011;9296;48.084;16.352;2023-07-02T13:09:05;2.08;;;1.88;;
18340;SDS011;9296;48.084;16.352;2023-07-02T13:11:32;1.80;;;1.70;;
18340;SDS011;9296;48.084;16.352;2023-07-02T13:13:59;2.05;;;1.85;;
18340;SDS011;9296;48.084;16.352;2023-07-02T13:16:27;2.40;;;1.92;;
18340;SDS011;9296;48.084;16.352;2023-07-02T13:18:54;1.83;;;1.55;;
18340;SDS011;9296;48.084;16.352;2023-07-02T13:21:21;3.80;;;2.83;;
18340;SDS011;9296;48.084;16.352;2023-07-02T13:23:50;2.55;;;1.67;;
18340;SDS011;9296;48.084;16.352;2023-07-02T13:26:18;1.98;;;1.65;;
18340;SDS011;9296;48.084;16.352;2023-07-02T13:28:45;2.33;;;1.80;;
18340;SDS011;9296;48.084;16.352;2023-07-02T13:31:13;1.88;;;1.67;;
18340;SDS011;9296;48.084;16.352;2023-07-02T13:33:41;1.83;;;1.50;;
18340;SDS011;9296;48.084;16.352;2023-07-02T13:36:08;2.10;;;1.80;;
18340;SDS011;9296;48.084;16.352;2023-07-02T13:38:36;3.67;;;1.73;;
18340;SDS011;9296;48.084;16.352;2023-07-02T13:41:04;2.65;;;1.27;;
18340;SDS011;9296;48.084;16.352;2023-07-02T13:43:31;1.70;;;1.30;;
18340;SDS011;9296;48.084;16.352;2023-07-02T13:45:59;1.23;;;1.13;;
18340;SDS011;9296;48.084;16.352;2023-07-02T13:48:26;1.33;;;1.20;;
18340;SDS011;9296;48.084;16.352;2023-07-02T13:50:53;1.35;;;1.20;;
18340;SDS011;9296;48.084;16.352;2023-07-02T13:53:21;1.50;;;1.33;;
18340;SDS011;9296;48.084;16.352;2023-07-02T13:59:03;1.20;;;1.02;;
18340;SDS011;9296;48.084;16.352;2023-07-02T14:01:31;1.85;;;1.17;;
18340;SDS011;9296;48.084;16.352;2023-07-02T14:03:59;1.50;;;1.23;;
18340;SDS011;9296;48.084;16.352;2023-07-02T14:06:29;1.40;;;1.15;;
18340;SDS011;9296;48.084;16.352;2023-07-02T14:08:56;1.30;;;1.20;;
18340;SDS011;9296;48.084;16.352;2023-07-02T14:14:28;3.63;;;1.23;;
18340;SDS011;9296;48.084;16.352;2023-07-02T14:16:55;1.63;;;1.30;;
18340;SDS011;9296;48.084;16.352;2023-07-02T14:19:22;1.75;;;1.35;;
18340;SDS011;9296;48.084;16.352;2023-07-02T14:21:50;2.05;;;1.60;;
18340;SDS011;9296;48.084;16.352;2023-07-02T14:24:17;1.60;;;1.35;;
18340;SDS011;9296;48.084;16.352;2023-07-02T14:27:02;1.65;;;1.35;;
18340;SDS011;9296;48.084;16.352;2023-07-02T14:29:31;2.35;;;1.50;;
18340;SDS011;9296;48.084;16.352;2023-07-02T14:31:58;2.47;;;1.73;;
18340;SDS011;9296;48.084;16.352;2023-07-02T14:34:25;3.67;;;1.77;;
18340;SDS011;9296;48.084;16.352;2023-07-02T14:36:53;2.35;;;1.63;;
18340;SDS011;9296;48.084;16.352;2023-07-02T14:39:20;2.33;;;1.70;;
18340;SDS011;9296;48.084;16.352;2023-07-02T14:44:53;2.97;;;1.80;;
18340;SDS011;9296;48.084;16.352;2023-07-02T14:47:20;3.85;;;2.10;;
18340;SDS011;9296;48.084;16.352;2023-07-02T14:49:47;2.30;;;1.90;;
18340;SDS011;9296;48.084;16.352;2023-07-02T14:52:15;2.20;;;1.80;;
18340;SDS011;9296;48.084;16.352;2023-07-02T14:54:44;3.65;;;1.92;;
18340;SDS011;9296;48.084;16.352;2023-07-02T14:57:11;2.40;;;2.10;;
18340;SDS011;9296;48.084;16.352;2023-07-02T14:59:39;3.10;;;2.30;;
18340;SDS011;9296;48.084;16.352;2023-07-02T15:02:10;2.35;;;1.95;;
18340;SDS011;9296;48.084;16.352;2023-07-02T15:04:37;9.23;;;2.20;;
18340;SDS011;9296;48.084;16.352;2023-07-02T15:07:05;3.53;;;1.70;;
18340;SDS011;9296;48.084;16.352;2023-07-02T15:09:35;3.47;;;1.95;;
18340;SDS011;9296;48.084;16.352;2023-07-02T15:12:02;5.10;;;2.13;;
18340;SDS011;9296;48.084;16.352;2023-07-02T15:14:30;2.45;;;2.13;;
18340;SDS011;9296;48.084;16.352;2023-07-02T15:16:57;2.63;;;2.20;;
18340;SDS011;9296;48.084;16.352;2023-07-02T15:19:26;3.75;;;2.10;;
18340;SDS011;9296;48.084;16.352;2023-07-02T15:21:53;2.65;;;1.80;;
18340;SDS011;9296;48.084;16.352;2023-07-02T15:24:20;2.05;;;1.77;;
18340;SDS011;9296;48.084;16.352;2023-07-02T15:29:50;2.22;;;1.98;;
18340;SDS011;9296;48.084;16.352;2023-07-02T15:32:18;2.75;;;2.20;;
18340;SDS011;9296;48.084;16.352;2023-07-02T15:34:46;3.45;;;2.05;;
18340;SDS011;9296;48.084;16.352;2023-07-02T15:37:13;3.67;;;2.33;;
18340;SDS011;9296;48.084;16.352;2023-07-02T15:39:41;3.40;;;2.30;;
18340;SDS011;9296;48.084;16.352;2023-07-02T15:45:14;3.17;;;2.58;;
18340;SDS011;9296;48.084;16.352;2023-07-02T15:47:44;2.95;;;2.42;;
18340;SDS011;9296;48.084;16.352;2023-07-02T15:50:13;3.97;;;2.60;;
18340;SDS011;9296;48.084;16.352;2023-07-02T15:52:40;4.45;;;3.00;;
18340;SDS011;9296;48.084;16.352;2023-07-02T15:58:10;3.58;;;2.72;;
18340;SDS011;9296;48.084;16.352;2023-07-02T16:00:38;3.42;;;2.60;;
18340;SDS011;9296;48.084;16.352;2023-07-02T16:03:05;4.05;;;2.70;;
18340;SDS011;9296;48.084;16.352;2023-07-02T16:05:35;3.92;;;2.80;;
18340;SDS011;9296;48.084;16.352;2023-07-02T16:08:03;3.63;;;3.05;;
18340;SDS011;9296;48.084;16.352;2023-07-02T16:10:30;4.07;;;2.75;;
18340;SDS011;9296;48.084;16.352;2023-07-02T16:12:57;5.47;;;3.17;;
18340;SDS011;9296;48.084;16.352;2023-07-02T16:15:25;5.63;;;2.95;;
18340;SDS011;9296;48.084;16.352;2023-07-02T16:17:52;3.67;;;3.03;;
18340;SDS011;9296;48.084;16.352;2023-07-02T16:20:19;5.18;;;3.50;;
18340;SDS011;9296;48.084;16.352;2023-07-02T16:22:48;4.75;;;3.05;;
18340;SDS011;9296;48.084;16.352;2023-07-02T16:25:15;4.30;;;3.00;;
18340;SDS011;9296;48.084;16.352;2023-07-02T16:27:42;4.85;;;2.90;;
18340;SDS011;9296;48.084;16.352;2023-07-02T16:30:10;4.88;;;3.55;;
18340;SDS011;9296;48.084;16.352;2023-07-02T16:32:37;6.38;;;3.05;;
18340;SDS011;9296;48.084;16.352;2023-07-02T16:35:05;4.15;;;3.30;;
18340;SDS011;9296;48.084;16.352;2023-07-02T16:37:32;5.25;;;3.08;;
18340;SDS011;9296;48.084;16.352;2023-07-02T16:40:01;7.32;;;3.80;;
18340;SDS011;9296;48.084;16.352;2023-07-02T16:42:28;5.10;;;3.38;;
18340;SDS011;9296;48.084;16.352;2023-07-02T16:44:56;5.72;;;3.30;;
18340;SDS011;9296;48.084;16.352;2023-07-02T16:47:24;5.15;;;3.45;;
18340;SDS011;9296;48.084;16.352;2023-07-02T16:49:51;4.80;;;3.38;;
18340;SDS011;9296;48.084;16.352;2023-07-02T16:52:18;3.92;;;3.08;;
18340;SDS011;9296;48.084;16.352;2023-07-02T16:54:48;4.78;;;3.33;;
18340;SDS011;9296;48.084;16.352;2023-07-02T16:57:17;6.47;;;3.35;;
18340;SDS011;9296;48.084;16.352;2023-07-02T16:59:44;4.13;;;3.33;;
18340;SDS011;9296;48.084;16.352;2023-07-02T17:02:11;4.75;;;3.50;;
18340;SDS011;9296;48.084;16.352;2023-07-02T17:04:38;5.22;;;3.65;;
18340;SDS011;9296;48.084;16.352;2023-07-02T17:07:05;6.70;;;4.53;;
18340;SDS011;9296;48.084;16.352;2023-07-02T17:09:34;5.35;;;3.67;;
18340;SDS011;9296;48.084;16.352;2023-07-02T17:12:05;5.68;;;4.20;;
18340;SDS011;9296;48.084;16.352;2023-07-02T17:14:36;7.43;;;5.05;;
18340;SDS011;9296;48.084;16.352;2023-07-02T17:17:04;6.03;;;3.78;;
18340;SDS011;9296;48.084;16.352;2023-07-02T17:19:33;6.60;;;3.85;;
18340;SDS011;9296;48.084;16.352;2023-07-02T17:22:01;6.68;;;3.75;;
18340;SDS011;9296;48.084;16.352;2023-07-02T17:24:29;8.07;;;4.97;;
18340;SDS011;9296;48.084;16.352;2023-07-02T17:27:16;5.55;;;4.07;;
18340;SDS011;9296;48.084;16.352;2023-07-02T17:29:49;4.68;;;3.85;;
18340;SDS011;9296;48.084;16.352;2023-07-02T17:32:17;5.80;;;3.88;;
18340;SDS011;9296;48.084;16.352;2023-07-02T17:34:44;4.35;;;3.55;;
18340;SDS011;9296;48.084;16.352;2023-07-02T17:37:11;4.90;;;4.20;;
18340;SDS011;9296;48.084;16.352;2023-07-02T17:39:42;5.60;;;4.57;;
18340;SDS011;9296;48.084;16.352;2023-07-02T17:45:14;8.93;;;3.90;;
18340;SDS011;9296;48.084;16.352;2023-07-02T17:47:42;5.72;;;3.90;;
18340;SDS011;9296;48.084;16.352;2023-07-02T17:50:09;5.10;;;4.00;;
18340;SDS011;9296;48.084;16.352;2023-07-02T17:52:37;6.20;;;4.00;;
18340;SDS011;9296;48.084;16.352;2023-07-02T17:55:05;6.03;;;3.80;;
18340;SDS011;9296;48.084;16.352;2023-07-02T18:00:38;5.85;;;4.07;;
18340;SDS011;9296;48.084;16.352;2023-07-02T18:03:05;4.85;;;3.65;;
18340;SDS011;9296;48.084;16.352;2023-07-02T18:05:32;5.88;;;3.97;;
18340;SDS011;9296;48.084;16.352;2023-07-02T18:07:59;6.25;;;4.45;;
18340;SDS011;9296;48.084;16.352;2023-07-02T18:10:28;6.20;;;3.97;;
18340;SDS011;9296;48.084;16.352;2023-07-02T18:12:56;7.03;;;4.40;;
18340;SDS011;9296;48.084;16.352;2023-07-02T18:15:23;7.38;;;4.28;;
18340;SDS011;9296;48.084;16.352;2023-07-02T18:17:52;5.05;;;3.90;;